sensor_id;sensor_type;location;lat;lon;timestamp;P1;durP1;ratioP1;P2;durP2;ratioP2
46983;SDS011;34732;52.112;9.366;2024-01-15T08:06:36;2.00;;;2.00;;
46983;SDS011;34732;52.112;9.366;2024-01-15T08:10:03;3.25;;;3.00;;
46983;SDS011;34732;52.112;9.366;2024-01-15T08:13:26;2.75;;;2.50;;
46983;SDS011;34732;52.112;9.366;2024-01-15T08:16:50;2.25;;;2.25;;
46983;SDS011;34732;52.112;9.366;2024-01-15T08:20:20;2.00;;;1.50;;
46983;SDS011;34732;52.112;9.366;2024-01-15T08:23:44;2.00;;;2.00;;
46983;SDS011;34732;52.112;9.366;2024-01-15T08:27:06;1.75;;;1.75;;
46983;SDS011;34732;52.112;9.366;2024-01-15T08:30:29;4.00;;;4.00;;
46983;SDS011;34732;52.112;9.366;2024-01-15T08:33:54;2.00;;;2.00;;
46983;SDS011;34732;52.112;9.366;2024-01-15T08:37:18;3.00;;;3.00;;
46983;SDS011;34732;52.112;9.366;2024-01-15T08:40:44;2.25;;;2.00;;
46983;SDS011;34732;52.112;9.366;2024-01-15T08:44:05;2.75;;;2.50;;
46983;SDS011;34732;52.112;9.366;2024-01-15T08:47:28;2.00;;;1.50;;
46983;SDS011;34732;52.112;9.366;2024-01-15T08:50:52;1.75;;;1.75;;
46983;SDS011;34732;52.112;9.366;2024-01-15T08:54:18;1.50;;;1.00;;
46983;SDS011;34732;52.112;9.366;2024-01-15T08:57:45;1.75;;;1.50;;
46983;SDS011;34732;52.112;9.366;2024-01-15T09:01:06;1.00;;;1.00;;
46983;SDS011;34732;52.112;9.366;2024-01-15T09:04:32;1.75;;;1.25;;
46983;SDS011;34732;52.112;9.366;2024-01-15T09:07:55;1.75;;;1.00;;
46983;SDS011;34732;52.112;9.366;2024-01-15T09:11:17;0.00;;;0.00;;
46983;SDS011;34732;52.112;9.366;2024-01-15T09:14:42;0.25;;;0.25;;
46983;SDS011;34732;52.112;9.366;2024-01-15T09:18:03;0.00;;;0.00;;
46983;SDS011;34732;52.112;9.366;2024-01-15T09:21:35;0.75;;;0.75;;
46983;SDS011;34732;52.112;9.366;2024-01-15T09:24:56;2.25;;;2.25;;
46983;SDS011;34732;52.112;9.366;2024-01-15T09:28:22;0.25;;;0.25;;
46983;SDS011;34732;52.112;9.366;2024-01-15T09:31:45;0.50;;;0.00;;
46983;SDS011;34732;52.112;9.366;2024-01-15T09:35:11;1.00;;;1.00;;
46983;SDS011;34732;52.112;9.366;2024-01-15T09:38:38;1.00;;;0.25;;
46983;SDS011;34732;52.112;9.366;2024-01-15T09:42:04;1.00;;;1.00;;
46983;SDS011;34732;52.112;9.366;2024-01-15T09:45:31;1.00;;;0.50;;
46983;SDS011;34732;52.112;9.366;2024-01-15T09:48:54;1.50;;;1.25;;
46983;SDS011;34732;52.112;9.366;2024-01-15T09:52:15;1.50;;;1.50;;
46983;SDS011;34732;52.112;9.366;2024-01-15T09:55:40;1.50;;;1.00;;
46983;SDS011;34732;52.112;9.366;2024-01-15T09:59:04;0.75;;;0.75;;
46983;SDS011;34732;52.112;9.366;2024-01-15T10:02:26;1.75;;;1.25;;
46983;SDS011;34732;52.112;9.366;2024-01-15T10:05:52;1.00;;;0.50;;
46983;SDS011;34732;52.112;9.366;2024-01-15T10:09:15;1.00;;;1.00;;
46983;SDS011;34732;52.112;9.366;2024-01-15T10:12:41;1.00;;;1.00;;
46983;SDS011;34732;52.112;9.366;2024-01-15T10:16:05;2.00;;;1.50;;
46983;SDS011;34732;52.112;9.366;2024-01-15T10:19:30;1.75;;;1.00;;
46983;SDS011;34732;52.112;9.366;2024-01-15T10:22:56;1.00;;;1.00;;
46983;SDS011;34732;52.112;9.366;2024-01-15T10:26:24;1.00;;;0.50;;
46983;SDS011;34732;52.112;9.366;2024-01-15T10:29:46;0.00;;;0.00;;
46983;SDS011;34732;52.112;9.366;2024-01-15T10:33:09;1.00;;;1.00;;
46983;SDS011;34732;52.112;9.366;2024-01-15T10:36:35;0.00;;;0.00;;
46983;SDS011;34732;52.112;9.366;2024-01-15T10:40:01;0.00;;;0.00;;
46983;SDS011;34732;52.112;9.366;2024-01-15T10:43:25;1.00;;;0.00;;
46983;SDS011;34732;52.112;9.366;2024-01-15T10:46:51;0.50;;;0.50;;
46983;SDS011;34732;52.112;9.366;2024-01-15T10:50:12;1.00;;;1.00;;
46983;SDS011;34732;52.112;9.366;2024-01-15T10:53:34;0.50;;;0.50;;
46983;SDS011;34732;52.112;9.366;2024-01-15T10:56:58;0.00;;;0.00;;
46983;SDS011;34732;52.112;9.366;2024-01-15T11:00:24;0.00;;;0.00;;
46983;SDS011;34732;52.112;9.366;2024-01-15T11:03:48;1.00;;;1.00;;
46983;SDS011;34732;52.112;9.366;2024-01-15T11:07:10;0.25;;;0.00;;
46983;SDS011;34732;52.112;9.366;2024-01-15T11:10:38;1.00;;;1.00;;
46983;SDS011;34732;52.112;9.366;2024-01-15T11:14:10;0.33;;;0.33;;
46983;SDS011;34732;52.112;9.366;2024-01-15T11:21:35;1.00;;;0.00;;
46983;SDS011;34732;52.112;9.366;2024-01-15T11:25:15;0.00;;;0.00;;
46983;SDS011;34732;52.112;9.366;2024-01-15T11:28:49;0.00;;;0.00;;
46983;SDS011;34732;52.112;9.366;2024-01-15T11:32:11;0.00;;;0.00;;
46983;SDS011;34732;52.112;9.366;2024-01-15T11:35:48;0.00;;;0.00;;
46983;SDS011;34732;52.112;9.366;2024-01-15T11:42:51;0.00;;;0.00;;
46983;SDS011;34732;52.112;9.366;2024-01-15T11:46:17;0.00;;;0.00;;
46983;SDS011;34732;52.112;9.366;2024-01-15T11:56:44;0.00;;;0.00;;
46983;SDS011;34732;52.112;9.366;2024-01-15T12:00:05;0.00;;;0.00;;
46983;SDS011;34732;52.112;9.366;2024-01-15T12:03:33;0.50;;;0.25;;
46983;SDS011;34732;52.112;9.366;2024-01-15T12:06:59;0.00;;;0.00;;
46983;SDS011;34732;52.112;9.366;2024-01-15T12:10:21;0.00;;;0.00;;
46983;SDS011;34732;52.112;9.366;2024-01-15T12:13:42;0.00;;;0.00;;
46983;SDS011;34732;52.112;9.366;2024-01-15T12:17:03;0.50;;;0.00;;
46983;SDS011;34732;52.112;9.366;2024-01-15T12:20:30;0.00;;;0.00;;
46983;SDS011;34732;52.112;9.366;2024-01-15T12:23:52;1.00;;;1.00;;
46983;SDS011;34732;52.112;9.366;2024-01-15T12:27:23;1.25;;;1.00;;
46983;SDS011;34732;52.112;9.366;2024-01-15T12:30:47;1.50;;;1.50;;
46983;SDS011;34732;52.112;9.366;2024-01-15T12:34:30;1.75;;;1.50;;
46983;SDS011;34732;52.112;9.366;2024-01-15T12:37:59;1.75;;;1.75;;
46983;SDS011;34732;52.112;9.366;2024-01-15T12:41:22;1.75;;;1.75;;
46983;SDS011;34732;52.112;9.366;2024-01-15T12:44:54;2.00;;;2.00;;
46983;SDS011;34732;52.112;9.366;2024-01-15T12:48:20;3.00;;;3.00;;
46983;SDS011;34732;52.112;9.366;2024-01-15T12:51:51;2.50;;;2.25;;
46983;SDS011;34732;52.112;9.366;2024-01-15T12:55:15;6.00;;;4.50;;
46983;SDS011;34732;52.112;9.366;2024-01-15T12:58:38;10.50;;;10.50;;
46983;SDS011;34732;52.112;9.366;2024-01-15T13:02:00;14.00;;;11.75;;
46983;SDS011;34732;52.112;9.366;2024-01-15T13:05:23;15.75;;;15.25;;
46983;SDS011;34732;52.112;9.366;2024-01-15T13:08:48;17.00;;;14.00;;
46983;SDS011;34732;52.112;9.366;2024-01-15T13:12:12;16.50;;;15.75;;
46983;SDS011;34732;52.112;9.366;2024-01-15T13:15:35;16.00;;;12.50;;
46983;SDS011;34732;52.112;9.366;2024-01-15T13:18:56;15.50;;;13.75;;
46983;SDS011;34732;52.112;9.366;2024-01-15T13:22:19;13.25;;;12.00;;
46983;SDS011;34732;52.112;9.366;2024-01-15T13:25:44;18.00;;;15.00;;
46983;SDS011;34732;52.112;9.366;2024-01-15T13:29:08;15.00;;;13.75;;
46983;SDS011;34732;52.112;9.366;2024-01-15T13:32:30;13.00;;;12.00;;
46983;SDS011;34732;52.112;9.366;2024-01-15T13:35:51;12.00;;;11.25;;
46983;SDS011;34732;52.112;9.366;2024-01-15T13:39:13;12.25;;;9.50;;
46983;SDS011;34732;52.112;9.366;2024-01-15T13:42:37;9.00;;;7.25;;
46983;SDS011;34732;52.112;9.366;2024-01-15T13:46:04;9.00;;;8.75;;
46983;SDS011;34732;52.112;9.366;2024-01-15T13:49:28;11.00;;;9.75;;
46983;SDS011;34732;52.112;9.366;2024-01-15T13:52:51;8.75;;;8.00;;
46983;SDS011;34732;52.112;9.366;2024-01-15T13:56:14;11.50;;;9.50;;
46983;SDS011;34732;52.112;9.366;2024-01-15T13:59:36;10.50;;;9.75;;
46983;SDS011;34732;52.112;9.366;2024-01-15T14:02:57;12.50;;;8.50;;
46983;SDS011;34732;52.112;9.366;2024-01-15T14:06:23;8.75;;;8.75;;
46983;SDS011;34732;52.112;9.366;2024-01-15T14:09:51;8.00;;;7.00;;
46983;SDS011;34732;52.112;9.366;2024-01-15T14:13:14;8.00;;;7.75;;
46983;SDS011;34732;52.112;9.366;2024-01-15T14:16:38;7.75;;;7.00;;
46983;SDS011;34732;52.112;9.366;2024-01-15T14:20:04;9.00;;;7.75;;
46983;SDS011;34732;52.112;9.366;2024-01-15T14:23:32;7.25;;;6.50;;
46983;SDS011;34732;52.112;9.366;2024-01-15T14:26:59;6.00;;;5.75;;
46983;SDS011;34732;52.112;9.366;2024-01-15T14:30:20;9.00;;;7.50;;
46983;SDS011;34732;52.112;9.366;2024-01-15T14:33:44;5.50;;;5.00;;
46983;SDS011;34732;52.112;9.366;2024-01-15T14:37:05;8.00;;;6.50;;
46983;SDS011;34732;52.112;9.366;2024-01-15T14:40:31;3.00;;;3.00;;
46983;SDS011;34732;52.112;9.366;2024-01-15T14:43:57;8.00;;;7.25;;
46983;SDS011;34732;52.112;9.366;2024-01-15T14:47:23;8.25;;;5.50;;
46983;SDS011;34732;52.112;9.366;2024-01-15T14:50:52;6.75;;;6.00;;
46983;SDS011;34732;52.112;9.366;2024-01-15T14:54:15;4.50;;;4.50;;
46983;SDS011;34732;52.112;9.366;2024-01-15T14:57:43;6.00;;;5.50;;
46983;SDS011;34732;52.112;9.366;2024-01-15T15:01:07;4.50;;;4.50;;
46983;SDS011;34732;52.112;9.366;2024-01-15T15:04:28;7.50;;;5.00;;
46983;SDS011;34732;52.112;9.366;2024-01-15T15:07:50;7.00;;;5.75;;
46983;SDS011;34732;52.112;9.366;2024-01-15T15:11:11;5.75;;;4.75;;
46983;SDS011;34732;52.112;9.366;2024-01-15T15:14:37;5.00;;;5.00;;
46983;SDS011;34732;52.112;9.366;2024-01-15T15:17:59;6.75;;;6.00;;
46983;SDS011;34732;52.112;9.366;2024-01-15T15:21:22;5.75;;;5.75;;
46983;SDS011;34732;52.112;9.366;2024-01-15T15:24:50;5.25;;;5.00;;
46983;SDS011;34732;52.112;9.366;2024-01-15T15:28:18;5.25;;;5.00;;
46983;SDS011;34732;52.112;9.366;2024-01-15T15:31:41;6.75;;;5.50;;
46983;SDS011;34732;52.112;9.366;2024-01-15T15:39:04;5.25;;;3.00;;
46983;SDS011;34732;52.112;9.366;2024-01-15T15:42:27;6.00;;;4.75;;
46983;SDS011;34732;52.112;9.366;2024-01-15T15:45:54;5.00;;;4.75;;
46983;SDS011;34732;52.112;9.366;2024-01-15T15:49:15;4.00;;;4.00;;
46983;SDS011;34732;52.112;9.366;2024-01-15T15:52:41;5.75;;;5.00;;
46983;SDS011;34732;52.112;9.366;2024-01-15T15:56:03;5.00;;;4.50;;
46983;SDS011;34732;52.112;9.366;2024-01-15T15:59:27;7.00;;;4.50;;
46983;SDS011;34732;52.112;9.366;2024-01-15T16:02:53;4.75;;;4.75;;
46983;SDS011;34732;52.112;9.366;2024-01-15T16:06:22;3.25;;;3.00;;
46983;SDS011;34732;52.112;9.366;2024-01-15T16:09:47;2.25;;;1.00;;
46983;SDS011;34732;52.112;9.366;2024-01-15T16:13:09;4.00;;;3.00;;
46983;SDS011;34732;52.112;9.366;2024-01-15T16:16:32;4.00;;;4.00;;
46983;SDS011;34732;52.112;9.366;2024-01-15T16:19:58;6.50;;;5.50;;
46983;SDS011;34732;52.112;9.366;2024-01-15T16:23:19;6.75;;;5.75;;
46983;SDS011;34732;52.112;9.366;2024-01-15T16:26:43;5.00;;;5.00;;
46983;SDS011;34732;52.112;9.366;2024-01-15T16:30:04;4.50;;;4.25;;
46983;SDS011;34732;52.112;9.366;2024-01-15T16:33:29;3.25;;;3.25;;
46983;SDS011;34732;52.112;9.366;2024-01-15T16:36:53;4.00;;;4.00;;
46983;SDS011;34732;52.112;9.366;2024-01-15T16:40:19;2.25;;;2.25;;
46983;SDS011;34732;52.112;9.366;2024-01-15T16:43:48;3.00;;;3.00;;
46983;SDS011;34732;52.112;9.366;2024-01-15T16:47:09;1.00;;;1.00;;
46983;SDS011;34732;52.112;9.366;2024-01-15T16:50:34;3.25;;;2.50;;
46983;SDS011;34732;52.112;9.366;2024-01-15T16:53:55;3.50;;;2.75;;
46983;SDS011;34732;52.112;9.366;2024-01-15T16:57:18;3.00;;;2.50;;
46983;SDS011;34732;52.112;9.366;2024-01-15T17:00:41;2.75;;;2.50;;
46983;SDS011;34732;52.112;9.366;2024-01-15T17:04:08;3.75;;;3.25;;
46983;SDS011;34732;52.112;9.366;2024-01-15T17:07:37;3.00;;;2.25;;
46983;SDS011;34732;52.112;9.366;2024-01-15T17:11:00;3.25;;;3.00;;
46983;SDS011;34732;52.112;9.366;2024-01-15T17:14:21;4.50;;;3.50;;
46983;SDS011;34732;52.112;9.366;2024-01-15T17:17:44;3.00;;;3.00;;
46983;SDS011;34732;52.112;9.366;2024-01-15T17:21:06;2.50;;;2.50;;
46983;SDS011;34732;52.112;9.366;2024-01-15T17:24:27;1.25;;;1.00;;
46983;SDS011;34732;52.112;9.366;2024-01-15T17:27:51;3.00;;;2.50;;
46983;SDS011;34732;52.112;9.366;2024-01-15T17:31:19;2.75;;;2.75;;
46983;SDS011;34732;52.112;9.366;2024-01-15T17:34:45;3.00;;;3.00;;
46983;SDS011;34732;52.112;9.366;2024-01-15T17:38:09;1.75;;;1.75;;
46983;SDS011;34732;52.112;9.366;2024-01-15T17:41:33;4.00;;;3.50;;
46983;SDS011;34732;52.112;9.366;2024-01-15T17:44:57;2.50;;;2.50;;
46983;SDS011;34732;52.112;9.366;2024-01-15T17:52:26;2.25;;;2.00;;
46983;SDS011;34732;52.112;9.366;2024-01-15T17:55:48;3.50;;;2.50;;
46983;SDS011;34732;52.112;9.366;2024-01-15T17:59:09;2.00;;;2.00;;
46983;SDS011;34732;52.112;9.366;2024-01-15T18:02:31;1.50;;;1.00;;
46983;SDS011;34732;52.112;9.366;2024-01-15T18:05:54;2.25;;;2.00;;
46983;SDS011;34732;52.112;9.366;2024-01-15T18:09:22;1.75;;;1.75;;
46983;SDS011;34732;52.112;9.366;2024-01-15T18:12:46;1.50;;;1.50;;
46983;SDS011;34732;52.112;9.366;2024-01-15T18:16:11;2.00;;;2.00;;
46983;SDS011;34732;52.112;9.366;2024-01-15T18:19:33;2.00;;;2.00;;
46983;SDS011;34732;52.112;9.366;2024-01-15T18:22:56;4.50;;;4.50;;
46983;SDS011;34732;52.112;9.366;2024-01-15T18:26:20;6.25;;;6.00;;
46983;SDS011;34732;52.112;9.366;2024-01-15T18:29:48;4.75;;;4.75;;
46983;SDS011;34732;52.112;9.366;2024-01-15T18:33:17;7.25;;;7.25;;
46983;SDS011;34732;52.112;9.366;2024-01-15T18:36:42;6.00;;;5.75;;
46983;SDS011;34732;52.112;9.366;2024-01-15T18:40:07;5.67;;;5.00;;
46983;SDS011;34732;52.112;9.366;2024-01-15T18:43:31;3.50;;;3.25;;
46983;SDS011;34732;52.112;9.366;2024-01-15T18:46:57;5.00;;;4.75;;
46983;SDS011;34732;52.112;9.366;2024-01-15T18:50:18;5.00;;;4.25;;
46983;SDS011;34732;52.112;9.366;2024-01-15T18:53:42;5.00;;;5.00;;
46983;SDS011;34732;52.112;9.366;2024-01-15T18:57:05;3.25;;;3.25;;
46983;SDS011;34732;52.112;9.366;2024-01-15T19:00:43;5.00;;;4.50;;
46983;SDS011;34732;52.112;9.366;2024-01-15T19:04:07;4.00;;;3.50;;
46983;SDS011;34732;52.112;9.366;2024-01-15T19:07:34;3.50;;;3.00;;
46983;SDS011;34732;52.112;9.366;2024-01-15T19:14:50;2.25;;;2.00;;
46983;SDS011;34732;52.112;9.366;2024-01-15T19:18:15;2.00;;;2.00;;
46983;SDS011;34732;52.112;9.366;2024-01-15T19:21:36;3.75;;;3.75;;
46983;SDS011;34732;52.112;9.366;2024-01-15T19:24:57;3.00;;;3.00;;
46983;SDS011;34732;52.112;9.366;2024-01-15T19:28:24;5.25;;;5.00;;
46983;SDS011;34732;52.112;9.366;2024-01-15T19:31:45;0.75;;;0.75;;
46983;SDS011;34732;52.112;9.366;2024-01-15T19:35:09;3.50;;;3.25;;
46983;SDS011;34732;52.112;9.366;2024-01-15T19:38:33;2.50;;;2.00;;
46983;SDS011;34732;52.112;9.366;2024-01-15T19:41:57;3.67;;;3.00;;
46983;SDS011;34732;52.112;9.366;2024-01-15T19:45:21;2.00;;;2.00;;
46983;SDS011;34732;52.112;9.366;2024-01-15T19:48:49;3.50;;;2.25;;
46983;SDS011;34732;52.112;9.366;2024-01-15T19:52:13;4.00;;;2.75;;
